Terminal Aerodrome Forecast
Issued by NWS

Home | Current Version | Previous Version | Text Only | Print | Product List | Glossary On
Versions: 1 2 3 4 5 6 7 8 9 10 11 12 13 14
000
FTUS42 KMLB 211200 AAA
TAFTIX
TAF AMD
KTIX 211207Z 2112/2212 31006KT P6SM SCT020 BKN250
      TEMPO 2112/2113 1SM BR VV001
     FM211400 35007KT P6SM SCT025 BKN250
     FM211800 07007KT P6SM VCSH SCT030 BKN080
     FM220100 VRB02KT P6SM BKN120=

USA.gov is the U.S. government's official web portal to all federal, state and local government web resources and services.